Amistad — WCZ9672 — position and weather

sailwx.info

Track history (hours):
 
Tides and Currents Weather Stations Pressure Air Temp Water Temp Dewpoint Dewpoint Depression Visibility Wind Speed Wind Dir Waves Ship Positions

Amistad (United States)

Ship's website: http://www.amistadvoyages.org/

Owner: AMISTAD AMERICA, New Haven, CT. More information available from US FCC via Universal Licensing System and Coast Guard Vessel Documentation Center.

Last reported at 2019-Oct-14 13:13 UTC. Time now 2019-Oct-17 16:29 UTC.
Position N 41°14' W 072°41'.

Length 39 m; draft 3.4 m.

Type: Sailing vessel. MMSI: 369547000.

Date/timePositionNaut miles runAvg speedWind from/ knotsBaromVisibWave heightAir tempDewpointWater temp
2019-Oct-14 13:13N 41°14' W 072°41'1 6.9
2019-Oct-14 13:00N 41°14' W 072°39'3 6.8
2019-Oct-14 12:30N 41°14' W 072°35'3 6.8
2019-Oct-14 12:00N 41°14' W 072°30'1 1.3
2019-Oct-14 11:30N 41°15' W 072°30'0 0.0
2019-Oct-14 10:55N 41°15' W 072°30'0 0.0
2019-Oct-14 10:31N 41°15' W 072°30'0 0.0
2019-Oct-14 09:55N 41°15' W 072°30'0 0.0
2019-Oct-14 09:25N 41°15' W 072°30'0 0.0
2019-Oct-14 08:55N 41°15' W 072°30'0 0.0
2019-Oct-14 08:31N 41°15' W 072°30'0 0.0
2019-Oct-14 07:49N 41°15' W 072°30'0 0.0
2019-Oct-14 07:31N 41°15' W 072°30'0 0.0
2019-Oct-14 06:55N 41°15' W 072°30'0 0.0
2019-Oct-14 06:31N 41°15' W 072°30'0 0.0
2019-Oct-14 05:58N 41°15' W 072°30'0 0.0
2019-Oct-14 05:28N 41°15' W 072°30'0 0.0
2019-Oct-14 04:58N 41°15' W 072°30'0 0.0
2019-Oct-14 04:28N 41°15' W 072°30'0 0.0
2019-Oct-14 03:59N 41°15' W 072°30'0 0.0
2019-Oct-14 03:29N 41°15' W 072°30'0 0.0
2019-Oct-14 02:59N 41°15' W 072°30'0 0.0
2019-Oct-14 02:29N 41°15' W 072°30'0 0.0
2019-Oct-14 01:59N 41°15' W 072°30'0 0.0
2019-Oct-14 01:29N 41°15' W 072°30'0 0.0
2019-Oct-14 00:59N 41°15' W 072°30'0 0.0
2019-Oct-14 00:29N 41°15' W 072°30'0 0.0
2019-Oct-13 23:59N 41°15' W 072°30'0 0.0
2019-Oct-13 23:29N 41°15' W 072°30'0 0.0
2019-Oct-13 22:53N 41°15' W 072°30'0 0.0
2019-Oct-13 22:29N 41°15' W 072°30'0 0.0
2019-Oct-13 21:59N 41°15' W 072°30'0 0.1
2019-Oct-13 21:29N 41°15' W 072°30'2 3.4
2019-Oct-13 21:00N 41°14' W 072°28'3 5.9
2019-Oct-13 20:30N 41°13' W 072°24'3 6.2
2019-Oct-13 20:00N 41°13' W 072°20'2 4.6
2019-Oct-13 19:28N 41°13' W 072°17'1 2.7
2019-Oct-13 19:00N 41°14' W 072°16'2 3.3
2019-Oct-13 18:29N 41°13' W 072°15'1 2.7
2019-Oct-13 18:00N 41°12' W 072°13'1 1.3
2019-Oct-13 17:27N 41°13' W 072°14'1 1.4
2019-Oct-13 17:00N 41°13' W 072°14'1 2.5
2019-Oct-13 16:30N 41°15' W 072°13'3 5.6
2019-Oct-13 16:00N 41°16' W 072°10'3 5.9
2019-Oct-13 15:30N 41°17' W 072°06'3 5.9
2019-Oct-13 15:00N 41°17' W 072°02'3 5.7
2019-Oct-13 14:30N 41°19' W 071°59'2 4.5
2019-Oct-13 13:59N 41°21' W 071°58'0 0.0
2019-Oct-13 13:29N 41°21' W 071°58'0 0.0
2019-Oct-13 13:00N 41°21' W 071°58'0 0.0
2019-Oct-13 12:30N 41°21' W 071°58'0 0.0
2019-Oct-13 12:00N 41°21' W 071°58'0 0.0
2019-Oct-13 11:30N 41°21' W 071°58'0 0.0
2019-Oct-13 11:00N 41°21' W 071°58'0 0.0
2019-Oct-13 10:30N 41°21' W 071°58'0 0.0
2019-Oct-13 10:00N 41°21' W 071°58'0 0.0
2019-Oct-13 09:30N 41°21' W 071°58'0 0.0
2019-Oct-13 09:00N 41°21' W 071°58'0 0.0
2019-Oct-13 08:30N 41°21' W 071°58'0 0.0
2019-Oct-13 08:00N 41°21' W 071°58'0 0.0
2019-Oct-13 07:30N 41°21' W 071°58'0 0.0
2019-Oct-13 07:00N 41°21' W 071°58'0 0.0
2019-Oct-13 06:30N 41°21' W 071°58'0 0.0
2019-Oct-13 06:00N 41°21' W 071°58'0 0.0
2019-Oct-13 05:27N 41°21' W 071°58'0 0.0
2019-Oct-13 05:00N 41°21' W 071°58'0 0.0
2019-Oct-13 04:30N 41°21' W 071°58'0 0.0
2019-Oct-13 04:00N 41°21' W 071°58'0 0.0
2019-Oct-13 03:30N 41°21' W 071°58'0 0.0
2019-Oct-13 03:00N 41°21' W 071°58'0 0.0
2019-Oct-13 02:30N 41°21' W 071°58'0 0.0
2019-Oct-13 02:00N 41°21' W 071°58'0 0.0
2019-Oct-13 01:30N 41°21' W 071°58'0 0.0
2019-Oct-13 01:00N 41°21' W 071°58'0 0.0
2019-Oct-13 00:30N 41°21' W 071°58'0 0.0
2019-Oct-13 00:00N 41°21' W 071°58'0 0.0
2019-Oct-12 23:30N 41°21' W 071°58'0 0.0
2019-Oct-12 23:00N 41°21' W 071°58'0 0.0
2019-Oct-12 22:30N 41°21' W 071°58'0 0.0
2019-Oct-12 22:00N 41°21' W 071°58'0 0.0
2019-Oct-12 21:30N 41°21' W 071°58'0 0.0
2019-Oct-12 21:00N 41°21' W 071°58'0 0.0
2019-Oct-12 20:30N 41°21' W 071°58'0 0.0
2019-Oct-12 20:00N 41°21' W 071°58'0 0.0
2019-Oct-12 19:30N 41°21' W 071°58'0 0.0
2019-Oct-12 19:00N 41°21' W 071°58'0 0.0
2019-Oct-12 18:30N 41°21' W 071°58'0 0.0
2019-Oct-12 18:00N 41°21' W 071°58'0 0.0
2019-Oct-12 17:30N 41°21' W 071°58'0 0.0
2019-Oct-12 17:00N 41°21' W 071°58'0 0.0
2019-Oct-12 16:30N 41°21' W 071°58'0 0.0
2019-Oct-12 16:00N 41°21' W 071°58'0 0.0
2019-Oct-12 15:30N 41°21' W 071°58'0 0.0
2019-Oct-12 15:00N 41°21' W 071°58'0 0.0
2019-Oct-12 14:30N 41°21' W 071°58'0 0.0
2019-Oct-12 14:00N 41°21' W 071°58'0 0.0
2019-Oct-12 13:30N 41°21' W 071°58'0 0.0
2019-Oct-12 13:00N 41°21' W 071°58'0 0.0
2019-Oct-12 12:30N 41°21' W 071°58'0 0.0
2019-Oct-12 12:00N 41°21' W 071°58'0 0.0
2019-Oct-12 11:30N 41°21' W 071°58'0 0.0
2019-Oct-12 11:00N 41°21' W 071°58'0 0.0
2019-Oct-12 10:30N 41°21' W 071°58'0 0.0
2019-Oct-12 10:00N 41°21' W 071°58'0 0.0
2019-Oct-12 09:30N 41°21' W 071°58'0 0.0
2019-Oct-12 09:00N 41°21' W 071°58'0 0.0
2019-Oct-12 08:30N 41°21' W 071°58'0 0.0
2019-Oct-12 08:00N 41°21' W 071°58'0 0.0
2019-Oct-12 07:30N 41°21' W 071°58'0 0.0
2019-Oct-12 07:00N 41°21' W 071°58'0 0.0
2019-Oct-12 06:30N 41°21' W 071°58'0 0.0
2019-Oct-12 06:00N 41°21' W 071°58'0 0.0
2019-Oct-12 05:30N 41°21' W 071°58'0 0.0
2019-Oct-12 05:00N 41°21' W 071°58'0 0.0
2019-Oct-12 04:30N 41°21' W 071°58'0 0.0
2019-Oct-12 04:00N 41°21' W 071°58'0 0.0
2019-Oct-12 03:30N 41°21' W 071°58'0 0.0
2019-Oct-12 03:00N 41°21' W 071°58'0 0.0
2019-Oct-12 02:30N 41°21' W 071°58'0 0.0
2019-Oct-12 02:00N 41°21' W 071°58'0 0.0
2019-Oct-12 01:30N 41°21' W 071°58'0 0.0
2019-Oct-12 01:00N 41°21' W 071°58'0 0.0
2019-Oct-12 00:30N 41°21' W 071°58'0 0.0
2019-Oct-12 00:00N 41°21' W 071°58'0 0.0
2019-Oct-11 23:30N 41°21' W 071°58'0 0.0
2019-Oct-11 23:00N 41°21' W 071°58'0 0.0
2019-Oct-11 22:30N 41°21' W 071°58'0 0.0
2019-Oct-11 22:00N 41°21' W 071°58'0 0.0
2019-Oct-11 21:30N 41°21' W 071°58'0 0.0
2019-Oct-11 21:00N 41°21' W 071°58'0 0.0
2019-Oct-11 20:30N 41°21' W 071°58'0 0.0
2019-Oct-11 20:00N 41°21' W 071°58'0 0.0
2019-Oct-11 19:30N 41°21' W 071°58'0 0.0
2019-Oct-11 19:00N 41°21' W 071°58'0 0.0
2019-Oct-11 18:30N 41°21' W 071°58'0 0.0
2019-Oct-11 18:00N 41°21' W 071°58'0 0.0
2019-Oct-11 17:30N 41°21' W 071°58'0 0.0
2019-Oct-11 17:00N 41°21' W 071°58'0 0.0
2019-Oct-11 16:30N 41°21' W 071°58'0 0.0
2019-Oct-11 16:00N 41°21' W 071°58'0 0.0
2019-Oct-11 15:30N 41°21' W 071°58'0 0.0
2019-Oct-11 15:00N 41°21' W 071°58'0 0.0
2019-Oct-11 14:30N 41°21' W 071°58'0 0.0
2019-Oct-11 13:57N 41°21' W 071°58'0 0.0
2019-Oct-11 13:30N 41°21' W 071°58'0 0.0
2019-Oct-11 13:00N 41°21' W 071°58'0 0.0
2019-Oct-11 12:30N 41°21' W 071°58'0 0.0
2019-Oct-11 12:00N 41°21' W 071°58'0 0.0
2019-Oct-11 11:30N 41°21' W 071°58'0 0.0
2019-Oct-11 11:00N 41°21' W 071°58'0 0.0
2019-Oct-11 10:30N 41°21' W 071°58'0 0.0
2019-Oct-11 10:00N 41°21' W 071°58'0 0.0
2019-Oct-11 09:30N 41°21' W 071°58'0 0.0
2019-Oct-11 09:00N 41°21' W 071°58'0 0.0
2019-Oct-11 08:30N 41°21' W 071°58'0 0.0
2019-Oct-11 08:00N 41°21' W 071°58'0 0.0
2019-Oct-11 07:30N 41°21' W 071°58'0 0.0
2019-Oct-11 07:00N 41°21' W 071°58'0 0.0
2019-Oct-11 06:30N 41°21' W 071°58'0 0.0
2019-Oct-11 06:00N 41°21' W 071°58'0 0.0
2019-Oct-11 05:30N 41°21' W 071°58'0 0.0
2019-Oct-11 05:00N 41°21' W 071°58'0 0.0
2019-Oct-11 04:30N 41°21' W 071°58'0 0.0
2019-Oct-11 04:00N 41°21' W 071°58'0 0.0
2019-Oct-11 03:30N 41°21' W 071°58'0 0.0
2019-Oct-11 03:00N 41°21' W 071°58'0 0.0
2019-Oct-11 02:30N 41°21' W 071°58'0 0.0
2019-Oct-11 02:00N 41°21' W 071°58'0 0.0
2019-Oct-11 01:30N 41°21' W 071°58'0 0.0
2019-Oct-11 01:00N 41°21' W 071°58'0 0.0
2019-Oct-11 00:30N 41°21' W 071°58'0 0.0
2019-Oct-11 00:00N 41°21' W 071°58'0 0.0
2019-Oct-10 23:30N 41°21' W 071°58'0 0.0
2019-Oct-10 23:00N 41°21' W 071°58'0 0.0
2019-Oct-10 22:30N 41°21' W 071°58'0 0.0
2019-Oct-10 22:00N 41°21' W 071°58'0 0.0
2019-Oct-10 21:30N 41°21' W 071°58'0 0.0
2019-Oct-10 21:00N 41°21' W 071°58'0 0.0
2019-Oct-10 20:30N 41°21' W 071°58'0 0.0
2019-Oct-10 20:00N 41°21' W 071°58'0 0.0
2019-Oct-10 19:30N 41°21' W 071°58'0 0.0
2019-Oct-10 19:00N 41°21' W 071°58'0 0.0
2019-Oct-10 18:30N 41°21' W 071°58'0 0.0
2019-Oct-10 18:00N 41°21' W 071°58'0 0.0
2019-Oct-10 17:30N 41°21' W 071°58'0 0.0
2019-Oct-10 17:00N 41°21' W 071°58'0 0.0
2019-Oct-10 16:30N 41°21' W 071°58'0 0.0
2019-Oct-10 16:00N 41°21' W 071°58'0 0.0
2019-Oct-10 15:30N 41°21' W 071°58'0 0.0
2019-Oct-10 15:00N 41°21' W 071°58'0 0.0
2019-Oct-10 14:30N 41°21' W 071°58'0 0.0
2019-Oct-10 14:00N 41°21' W 071°58'0 0.0
2019-Oct-10 13:30N 41°21' W 071°58'0 0.0
2019-Oct-10 13:00N 41°21' W 071°58'0 0.0
2019-Oct-10 12:30N 41°21' W 071°58'0 0.0
2019-Oct-10 12:00N 41°21' W 071°58'0 0.0
2019-Oct-10 11:30N 41°21' W 071°58'0 0.0
2019-Oct-10 11:00N 41°21' W 071°58'0 0.0
2019-Oct-10 10:30N 41°21' W 071°58'0 0.0
2019-Oct-10 10:00N 41°21' W 071°58'0 0.0
2019-Oct-10 09:30N 41°21' W 071°58'0 0.0
2019-Oct-10 09:00N 41°21' W 071°58'0 0.0
2019-Oct-10 08:30N 41°21' W 071°58'0 0.0
2019-Oct-10 08:00N 41°21' W 071°58'0 0.0
2019-Oct-10 07:30N 41°21' W 071°58'0 0.0
2019-Oct-10 07:00N 41°21' W 071°58'0 0.0
2019-Oct-10 06:30N 41°21' W 071°58'0 0.0
2019-Oct-10 06:00N 41°21' W 071°58'0 0.0
2019-Oct-10 05:30N 41°21' W 071°58'0 0.0
2019-Oct-10 05:00N 41°21' W 071°58'0 0.0
2019-Oct-10 04:30N 41°21' W 071°58'0 0.0
2019-Oct-10 04:00N 41°21' W 071°58'0 0.0
2019-Oct-10 03:30N 41°21' W 071°58'0 0.0
2019-Oct-10 03:00N 41°21' W 071°58'0 0.0
2019-Oct-10 02:30N 41°21' W 071°58'0 0.0
2019-Oct-10 02:00N 41°21' W 071°58'0 0.0
2019-Oct-10 01:30N 41°21' W 071°58'0 0.0
2019-Oct-09 21:18N 41°21' W 071°58'0 0.0
2019-Oct-09 19:51N 41°21' W 071°58'0 0.0
2019-Oct-09 19:24N 41°21' W 071°58'0 0.0
2019-Oct-09 19:00N 41°21' W 071°58'0 0.0
2019-Oct-09 18:30N 41°21' W 071°58'0 0.0
2019-Oct-09 18:00N 41°21' W 071°58'0 0.0
2019-Oct-09 17:30N 41°21' W 071°58'0 0.0
2019-Oct-09 17:00N 41°21' W 071°58'0 0.0
2019-Oct-09 16:30N 41°21' W 071°58'0 0.0
2019-Oct-09 16:00N 41°21' W 071°58'0 0.0
2019-Oct-09 15:30N 41°21' W 071°58'0 0.0
2019-Oct-09 15:00N 41°21' W 071°58'0 0.0
2019-Oct-09 14:30N 41°21' W 071°58'0 0.0
2019-Oct-09 14:00N 41°21' W 071°58'0 0.0
2019-Oct-09 13:30N 41°21' W 071°58'0 0.0
2019-Oct-09 13:00N 41°21' W 071°58'0 0.0
2019-Oct-09 12:30N 41°21' W 071°58'0 0.0
2019-Oct-09 12:00N 41°21' W 071°58'0 0.0
2019-Oct-09 11:30N 41°21' W 071°58'0 0.0
2019-Oct-09 11:00N 41°21' W 071°58'0 0.0
2019-Oct-09 10:30N 41°21' W 071°58'0 0.0
2019-Oct-09 10:00N 41°21' W 071°58'0 0.0
2019-Oct-09 09:30N 41°21' W 071°58'0 0.0
2019-Oct-09 09:00N 41°21' W 071°58'0 0.0
2019-Oct-09 08:30N 41°21' W 071°58'0 0.0
2019-Oct-09 08:00N 41°21' W 071°58'0 0.0
2019-Oct-09 07:30N 41°21' W 071°58'0 0.0
2019-Oct-09 07:00N 41°21' W 071°58'0 0.0
2019-Oct-09 06:30N 41°21' W 071°58'0 0.0
2019-Oct-09 06:00N 41°21' W 071°58'0 0.0
2019-Oct-09 05:30N 41°21' W 071°58'0 0.0
2019-Oct-09 05:00N 41°21' W 071°58'0 0.0
2019-Oct-09 04:30N 41°21' W 071°58'0 0.0
2019-Oct-09 04:00N 41°21' W 071°58'0 0.0
2019-Oct-09 03:30N 41°21' W 071°58'0 0.0
2019-Oct-09 03:00N 41°21' W 071°58'0 0.0
2019-Oct-09 02:30N 41°21' W 071°58'0 0.0
2019-Oct-09 02:00N 41°21' W 071°58'0 0.0
2019-Oct-09 01:30N 41°21' W 071°58'0 0.0
2019-Oct-09 01:00N 41°21' W 071°58'0 0.0
2019-Oct-09 00:30N 41°21' W 071°58'0 0.0
2019-Oct-09 00:00N 41°21' W 071°58'0 0.0
2019-Oct-08 23:30N 41°21' W 071°58'0 0.0
2019-Oct-08 23:00N 41°21' W 071°58'0 0.0
2019-Oct-08 22:30N 41°21' W 071°58'0 0.0
2019-Oct-08 22:00N 41°21' W 071°58'0 0.0
2019-Oct-08 21:30N 41°21' W 071°58'0 0.0
2019-Oct-08 21:00N 41°21' W 071°58'0 0.0
2019-Oct-08 20:30N 41°21' W 071°58'0 0.0
2019-Oct-08 20:00N 41°21' W 071°58'2 3.3
2019-Oct-08 19:30N 41°20' W 071°59'2 4.0
2019-Oct-08 19:00N 41°18' W 072°01'1 2.2
2019-Oct-08 18:30N 41°17' W 072°02'1 2.5
2019-Oct-08 18:00N 41°17' W 072°03'1 2.0
2019-Oct-08 17:30N 41°16' W 072°04'1 1.9
2019-Oct-08 17:00N 41°15' W 072°04'3 5.9
2019-Oct-08 16:30N 41°16' W 072°08'3 6.1
2019-Oct-08 16:00N 41°16' W 072°12'2 3.6
2019-Oct-08 15:30N 41°16' W 072°10'2 3.9
2019-Oct-08 15:00N 41°17' W 072°07'1 2.5
2019-Oct-08 14:30N 41°17' W 072°06'3 5.1
2019-Oct-08 14:00N 41°20' W 072°05'0 0.4
2019-Oct-08 13:29N 41°20' W 072°06'0 0.0
2019-Oct-08 12:59N 41°20' W 072°06'0 0.0
2019-Oct-08 12:29N 41°20' W 072°06'0 0.0
2019-Oct-08 11:59N 41°20' W 072°06'0 0.0
2019-Oct-08 11:29N 41°20' W 072°06'0 0.0
2019-Oct-08 10:59N 41°20' W 072°06'0 0.0
2019-Oct-08 10:29N 41°20' W 072°06'0 0.0
2019-Oct-08 09:59N 41°20' W 072°06'0 0.0
2019-Oct-08 09:29N 41°20' W 072°06'0 0.0
2019-Oct-08 08:59N 41°20' W 072°06'0 0.0
2019-Oct-08 08:29N 41°20' W 072°06'0 0.0
2019-Oct-08 07:59N 41°20' W 072°06'0 0.0
2019-Oct-08 07:29N 41°20' W 072°06'0 0.0
2019-Oct-08 06:59N 41°20' W 072°06'0 0.0
2019-Oct-08 06:29N 41°20' W 072°06'0 0.0
2019-Oct-08 05:59N 41°20' W 072°06'0 0.0
2019-Oct-08 05:29N 41°20' W 072°06'0 0.0
2019-Oct-08 04:59N 41°20' W 072°06'0 0.0
2019-Oct-08 04:29N 41°20' W 072°06'0 0.0
2019-Oct-08 03:59N 41°20' W 072°06'0 0.0
2019-Oct-08 03:29N 41°20' W 072°06'0 0.0
2019-Oct-08 02:59N 41°20' W 072°06'0 0.0
2019-Oct-08 02:29N 41°20' W 072°06'0 0.0
2019-Oct-08 01:59N 41°20' W 072°06'0 0.0
2019-Oct-08 01:29N 41°20' W 072°06'0 0.0
2019-Oct-08 00:59N 41°20' W 072°06'0 0.0
2019-Oct-08 00:29N 41°20' W 072°06'0 0.0
2019-Oct-07 23:59N 41°20' W 072°06'0 0.0
2019-Oct-07 23:29N 41°20' W 072°06'0 0.0
2019-Oct-07 22:59N 41°20' W 072°06'0 0.0
2019-Oct-07 22:29N 41°20' W 072°06'0 0.0
2019-Oct-07 21:59N 41°20' W 072°06'0 0.0
2019-Oct-07 21:29N 41°20' W 072°06'0 0.0
2019-Oct-07 20:59N 41°20' W 072°06'0 0.0
2019-Oct-07 20:29N 41°20' W 072°06'0 0.0
2019-Oct-07 19:59N 41°20' W 072°06'0 0.0
2019-Oct-07 19:29N 41°20' W 072°06'0 0.0
2019-Oct-07 18:59N 41°20' W 072°06'0 0.0
2019-Oct-07 18:29N 41°20' W 072°06'0 0.0
2019-Oct-07 17:59N 41°20' W 072°06'0 0.0
2019-Oct-07 17:29N 41°20' W 072°06'0 0.0
2019-Oct-07 16:59N 41°20' W 072°06'0 0.0
2019-Oct-07 16:29N 41°20' W 072°06'0 0.0
2019-Oct-07 15:59N 41°20' W 072°06'0 0.0
2019-Oct-07 15:29N 41°20' W 072°06'0 0.0
2019-Oct-07 14:59N 41°20' W 072°06'0 0.0
2019-Oct-07 14:29N 41°20' W 072°06'0 0.0
2019-Oct-07 13:59N 41°20' W 072°06'0 0.0
2019-Oct-07 13:29N 41°20' W 072°06'0 0.0
2019-Oct-07 12:59N 41°20' W 072°06'0 0.0
2019-Oct-07 12:29N 41°20' W 072°06'0 0.0
2019-Oct-07 11:59N 41°20' W 072°06'0 0.0
2019-Oct-07 11:29N 41°20' W 072°06'0 0.0
2019-Oct-07 10:59N 41°20' W 072°06'0 0.0
2019-Oct-07 10:29N 41°20' W 072°06'0 0.0
2019-Oct-07 09:59N 41°20' W 072°06'0 0.0
2019-Oct-07 09:29N 41°20' W 072°06'0 0.0
2019-Oct-07 08:59N 41°20' W 072°06'0 0.0
2019-Oct-07 08:29N 41°20' W 072°06'0 0.0
2019-Oct-07 07:59N 41°20' W 072°06'0 0.0
2019-Oct-07 07:29N 41°20' W 072°06'0 0.0
2019-Oct-07 06:59N 41°20' W 072°06'0 0.0
2019-Oct-07 06:29N 41°20' W 072°06'0 0.0
2019-Oct-07 05:59N 41°20' W 072°06'0 0.0
2019-Oct-07 05:29N 41°20' W 072°06'0 0.0
2019-Oct-07 04:59N 41°20' W 072°06'0 0.0
2019-Oct-07 04:29N 41°20' W 072°06'0 0.0
2019-Oct-07 03:59N 41°20' W 072°06'0 0.0
2019-Oct-07 03:29N 41°20' W 072°06'0 0.0
2019-Oct-07 02:59N 41°20' W 072°06'0 0.0
2019-Oct-07 01:59N 41°20' W 072°06'0 0.0
2019-Oct-07 01:29N 41°20' W 072°06'0 0.0
2019-Oct-07 00:59N 41°20' W 072°06'0 0.0
2019-Oct-07 00:29N 41°20' W 072°06'0 0.0
2019-Oct-06 23:59N 41°20' W 072°06'0 0.0
2019-Oct-06 23:29N 41°20' W 072°06'0 0.0
2019-Oct-06 22:59N 41°20' W 072°06'0 0.0
2019-Oct-06 22:29N 41°20' W 072°06'0 0.0
2019-Oct-06 21:59N 41°20' W 072°06'0 0.0
2019-Oct-06 21:29N 41°20' W 072°06'0 0.0
2019-Oct-06 20:59N 41°20' W 072°06'0 0.0
2019-Oct-06 20:29N 41°20' W 072°06'0 0.0
2019-Oct-06 19:59N 41°20' W 072°06'0 0.0
2019-Oct-06 19:29N 41°20' W 072°06'0 0.0
2019-Oct-06 18:59N 41°20' W 072°06'0 0.0
2019-Oct-06 18:29N 41°20' W 072°06'0 0.0
2019-Oct-06 17:59N 41°20' W 072°06'0 0.0
2019-Oct-06 17:29N 41°20' W 072°06'0 0.0
2019-Oct-06 16:59N 41°20' W 072°06'0 0.0
2019-Oct-06 16:29N 41°20' W 072°06'0 0.0
2019-Oct-06 15:59N 41°20' W 072°06'0 0.0
2019-Oct-06 15:29N 41°20' W 072°06'0 0.0
2019-Oct-06 14:59N 41°20' W 072°06'0 0.0
2019-Oct-06 14:29N 41°20' W 072°06'0 0.0
2019-Oct-06 13:59N 41°20' W 072°06'0 0.0
2019-Oct-06 13:29N 41°20' W 072°06'0 0.0
2019-Oct-06 12:59N 41°20' W 072°06'0 0.0
2019-Oct-06 12:29N 41°20' W 072°06'0 0.0
2019-Oct-06 11:59N 41°20' W 072°06'0 0.0
2019-Oct-06 11:29N 41°20' W 072°06'0 0.0
2019-Oct-06 10:59N 41°20' W 072°06'0 0.0
2019-Oct-06 10:29N 41°20' W 072°06'0 0.0
2019-Oct-06 09:59N 41°20' W 072°06'0 0.0
2019-Oct-06 09:29N 41°20' W 072°06'0 0.0
2019-Oct-06 08:59N 41°20' W 072°06'0 0.0
2019-Oct-06 08:29N 41°20' W 072°06'0 0.0
2019-Oct-06 07:59N 41°20' W 072°06'0 0.0
2019-Oct-06 07:29N 41°20' W 072°06'0 0.0
2019-Oct-06 06:59N 41°20' W 072°06'0 0.0
2019-Oct-06 06:29N 41°20' W 072°06'0 0.0
2019-Oct-06 05:59N 41°20' W 072°06'0 0.0
2019-Oct-06 05:29N 41°20' W 072°06'0 0.0
2019-Oct-06 04:59N 41°20' W 072°06'0 0.0
2019-Oct-06 04:29N 41°20' W 072°06'0 0.0
2019-Oct-06 03:59N 41°20' W 072°06'0 0.0
2019-Oct-06 03:29N 41°20' W 072°06'0 0.0
2019-Oct-06 02:59N 41°20' W 072°06'0 0.0
2019-Oct-06 02:29N 41°20' W 072°06'0 0.0
2019-Oct-06 01:59N 41°20' W 072°06'0 0.0
2019-Oct-06 01:29N 41°20' W 072°06'0 0.0
2019-Oct-06 00:59N 41°20' W 072°06'0 0.0
2019-Oct-06 00:29N 41°20' W 072°06'0 0.0
2019-Oct-05 23:59N 41°20' W 072°06'0 0.0
2019-Oct-05 23:29N 41°20' W 072°06'0 0.0
2019-Oct-05 22:58N 41°20' W 072°06'0 0.0
2019-Oct-05 22:29N 41°20' W 072°06'0 0.0
2019-Oct-05 21:58N 41°20' W 072°06'0 0.0
2019-Oct-05 21:28N 41°20' W 072°06'0 0.0
2019-Oct-05 20:58N 41°20' W 072°06'0 0.0
2019-Oct-05 20:28N 41°20' W 072°06'0 0.0
2019-Oct-05 19:58N 41°20' W 072°06'0 0.0
2019-Oct-05 19:28N 41°20' W 072°06'0 0.0
2019-Oct-05 18:58N 41°20' W 072°06'0 0.0
2019-Oct-05 18:28N 41°20' W 072°06'0 0.0
2019-Oct-05 17:58N 41°20' W 072°06'0 0.0
2019-Oct-05 17:28N 41°20' W 072°06'0 0.0
2019-Oct-05 16:58N 41°20' W 072°06'0 0.0
2019-Oct-05 16:28N 41°20' W 072°06'0 0.0
2019-Oct-05 15:58N 41°20' W 072°06'0 0.0
2019-Oct-05 15:28N 41°20' W 072°06'0 0.0
2019-Oct-05 14:58N 41°20' W 072°06'0 0.0
2019-Oct-05 14:28N 41°20' W 072°06'0 0.0
2019-Oct-05 13:58N 41°20' W 072°06'0 0.0
2019-Oct-05 13:28N 41°20' W 072°06'0 0.0
2019-Oct-05 12:58N 41°20' W 072°06'0 0.0
2019-Oct-05 12:28N 41°20' W 072°06'0 0.0
2019-Oct-05 11:58N 41°20' W 072°06'0 0.0
2019-Oct-05 11:28N 41°20' W 072°06'0 0.0
2019-Oct-05 10:58N 41°20' W 072°06'0 0.0
2019-Oct-05 10:28N 41°20' W 072°06'0 0.0
2019-Oct-05 09:58N 41°20' W 072°06'0 0.0
2019-Oct-05 09:28N 41°20' W 072°06'0 0.0
2019-Oct-05 08:58N 41°20' W 072°06'0 0.0
2019-Oct-05 08:28N 41°20' W 072°06'0 0.0
2019-Oct-05 07:58N 41°20' W 072°06'0 0.0
2019-Oct-05 07:28N 41°20' W 072°06'0 0.0
2019-Oct-05 06:58N 41°20' W 072°06'0 0.0
2019-Oct-05 06:28N 41°20' W 072°06'0 0.0
2019-Oct-05 05:58N 41°20' W 072°06'0 0.0
2019-Oct-05 05:28N 41°20' W 072°06'0 0.0
2019-Oct-05 04:58N 41°20' W 072°06'0 0.0
2019-Oct-05 04:28N 41°20' W 072°06'0 0.0
2019-Oct-05 03:58N 41°20' W 072°06'0 0.0
2019-Oct-05 03:28N 41°20' W 072°06'0 0.0
2019-Oct-05 02:58N 41°20' W 072°06'0 0.0
2019-Oct-05 02:28N 41°20' W 072°06'0 0.0
2019-Oct-05 01:58N 41°20' W 072°06'0 0.0
2019-Oct-05 01:28N 41°20' W 072°06'0 0.0
2019-Oct-05 00:58N 41°20' W 072°06'0 0.0
2019-Oct-05 00:28N 41°20' W 072°06'0 0.0
2019-Oct-04 23:58N 41°20' W 072°06'0 0.0
2019-Oct-04 23:28N 41°20' W 072°06'0 0.0
2019-Oct-04 22:58N 41°20' W 072°06'0 0.0
2019-Oct-04 22:28N 41°20' W 072°06'0 0.0
2019-Oct-04 21:58N 41°20' W 072°06'0 0.0
2019-Oct-04 21:28N 41°20' W 072°06'0 0.0
2019-Oct-04 20:58N 41°20' W 072°06'0 0.0
2019-Oct-04 20:28N 41°20' W 072°06'0 0.0
2019-Oct-04 19:58N 41°20' W 072°06'0 0.0
2019-Oct-04 19:28N 41°20' W 072°06'0 0.0
2019-Oct-04 18:58N 41°20' W 072°06'0 0.0
2019-Oct-04 18:28N 41°20' W 072°06'0 0.0
2019-Oct-04 17:58N 41°20' W 072°06'0 0.0
2019-Oct-04 17:28N 41°20' W 072°06'0 0.0
2019-Oct-04 16:58N 41°20' W 072°06'0 0.0
2019-Oct-04 16:28N 41°20' W 072°06'0 0.0
2019-Oct-04 16:00N 41°20' W 072°06'1 1.7
2019-Oct-04 15:30N 41°19' W 072°05'3 5.7
2019-Oct-04 15:00N 41°17' W 072°07'4 7.4
2019-Oct-04 14:30N 41°16' W 072°12'4 7.8
2019-Oct-04 14:00N 41°15' W 072°17'4 7.2
2019-Oct-04 13:30N 41°14' W 072°22'  
Track history (hours):
 
Tides and Currents Weather Stations Pressure Air Temp Water Temp Dewpoint Dewpoint Depression Visibility Wind Speed Wind Dir Waves Ship Positions

Amistad (United States)

Ship's website: http://www.amistadvoyages.org/

Owner: AMISTAD AMERICA, New Haven, CT. More information available from US FCC via Universal Licensing System and Coast Guard Vessel Documentation Center.

Last reported at 2019-Oct-14 13:13 UTC. Time now 2019-Oct-17 16:29 UTC.
Position N 41°14' W 072°41'.

Length 39 m; draft 3.4 m.

Type: Sailing vessel. MMSI: 369547000.

Date/timePositionNaut miles runAvg speedWind from/ knotsBaromVisibWave heightAir tempDewpointWater temp
2019-Oct-14 13:13N 41°14' W 072°41'1 6.9
2019-Oct-14 13:00N 41°14' W 072°39'3 6.8
2019-Oct-14 12:30N 41°14' W 072°35'3 6.8
2019-Oct-14 12:00N 41°14' W 072°30'1 1.3
2019-Oct-14 11:30N 41°15' W 072°30'0 0.0
2019-Oct-14 10:55N 41°15' W 072°30'0 0.0
2019-Oct-14 10:31N 41°15' W 072°30'0 0.0
2019-Oct-14 09:55N 41°15' W 072°30'0 0.0
2019-Oct-14 09:25N 41°15' W 072°30'0 0.0
2019-Oct-14 08:55N 41°15' W 072°30'0 0.0
2019-Oct-14 08:31N 41°15' W 072°30'0 0.0
2019-Oct-14 07:49N 41°15' W 072°30'0 0.0
2019-Oct-14 07:31N 41°15' W 072°30'0 0.0
2019-Oct-14 06:55N 41°15' W 072°30'0 0.0
2019-Oct-14 06:31N 41°15' W 072°30'0 0.0
2019-Oct-14 05:58N 41°15' W 072°30'0 0.0
2019-Oct-14 05:28N 41°15' W 072°30'0 0.0
2019-Oct-14 04:58N 41°15' W 072°30'0 0.0
2019-Oct-14 04:28N 41°15' W 072°30'0 0.0
2019-Oct-14 03:59N 41°15' W 072°30'0 0.0
2019-Oct-14 03:29N 41°15' W 072°30'0 0.0
2019-Oct-14 02:59N 41°15' W 072°30'0 0.0
2019-Oct-14 02:29N 41°15' W 072°30'0 0.0
2019-Oct-14 01:59N 41°15' W 072°30'0 0.0
2019-Oct-14 01:29N 41°15' W 072°30'0 0.0
2019-Oct-14 00:59N 41°15' W 072°30'0 0.0
2019-Oct-14 00:29N 41°15' W 072°30'0 0.0
2019-Oct-13 23:59N 41°15' W 072°30'0 0.0
2019-Oct-13 23:29N 41°15' W 072°30'0 0.0
2019-Oct-13 22:53N 41°15' W 072°30'0 0.0
2019-Oct-13 22:29N 41°15' W 072°30'0 0.0
2019-Oct-13 21:59N 41°15' W 072°30'0 0.1
2019-Oct-13 21:29N 41°15' W 072°30'2 3.4
2019-Oct-13 21:00N 41°14' W 072°28'3 5.9
2019-Oct-13 20:30N 41°13' W 072°24'3 6.2
2019-Oct-13 20:00N 41°13' W 072°20'2 4.6
2019-Oct-13 19:28N 41°13' W 072°17'1 2.7
2019-Oct-13 19:00N 41°14' W 072°16'2 3.3
2019-Oct-13 18:29N 41°13' W 072°15'1 2.7
2019-Oct-13 18:00N 41°12' W 072°13'1 1.3
2019-Oct-13 17:27N 41°13' W 072°14'1 1.4
2019-Oct-13 17:00N 41°13' W 072°14'1 2.5
2019-Oct-13 16:30N 41°15' W 072°13'3 5.6
2019-Oct-13 16:00N 41°16' W 072°10'3 5.9
2019-Oct-13 15:30N 41°17' W 072°06'3 5.9
2019-Oct-13 15:00N 41°17' W 072°02'3 5.7
2019-Oct-13 14:30N 41°19' W 071°59'2 4.5
2019-Oct-13 13:59N 41°21' W 071°58'0 0.0
2019-Oct-13 13:29N 41°21' W 071°58'0 0.0
2019-Oct-13 13:00N 41°21' W 071°58'0 0.0
2019-Oct-13 12:30N 41°21' W 071°58'0 0.0
2019-Oct-13 12:00N 41°21' W 071°58'0 0.0
2019-Oct-13 11:30N 41°21' W 071°58'0 0.0
2019-Oct-13 11:00N 41°21' W 071°58'0 0.0
2019-Oct-13 10:30N 41°21' W 071°58'0 0.0
2019-Oct-13 10:00N 41°21' W 071°58'0 0.0
2019-Oct-13 09:30N 41°21' W 071°58'0 0.0
2019-Oct-13 09:00N 41°21' W 071°58'0 0.0
2019-Oct-13 08:30N 41°21' W 071°58'0 0.0
2019-Oct-13 08:00N 41°21' W 071°58'0 0.0
2019-Oct-13 07:30N 41°21' W 071°58'0 0.0
2019-Oct-13 07:00N 41°21' W 071°58'0 0.0
2019-Oct-13 06:30N 41°21' W 071°58'0 0.0
2019-Oct-13 06:00N 41°21' W 071°58'0 0.0
2019-Oct-13 05:27N 41°21' W 071°58'0 0.0
2019-Oct-13 05:00N 41°21' W 071°58'0 0.0
2019-Oct-13 04:30N 41°21' W 071°58'0 0.0
2019-Oct-13 04:00N 41°21' W 071°58'0 0.0
2019-Oct-13 03:30N 41°21' W 071°58'0 0.0
2019-Oct-13 03:00N 41°21' W 071°58'0 0.0
2019-Oct-13 02:30N 41°21' W 071°58'0 0.0
2019-Oct-13 02:00N 41°21' W 071°58'0 0.0
2019-Oct-13 01:30N 41°21' W 071°58'0 0.0
2019-Oct-13 01:00N 41°21' W 071°58'0 0.0
2019-Oct-13 00:30N 41°21' W 071°58'0 0.0
2019-Oct-13 00:00N 41°21' W 071°58'0 0.0
2019-Oct-12 23:30N 41°21' W 071°58'0 0.0
2019-Oct-12 23:00N 41°21' W 071°58'0 0.0
2019-Oct-12 22:30N 41°21' W 071°58'0 0.0
2019-Oct-12 22:00N 41°21' W 071°58'0 0.0
2019-Oct-12 21:30N 41°21' W 071°58'0 0.0
2019-Oct-12 21:00N 41°21' W 071°58'0 0.0
2019-Oct-12 20:30N 41°21' W 071°58'0 0.0
2019-Oct-12 20:00N 41°21' W 071°58'0 0.0
2019-Oct-12 19:30N 41°21' W 071°58'0 0.0
2019-Oct-12 19:00N 41°21' W 071°58'0 0.0
2019-Oct-12 18:30N 41°21' W 071°58'0 0.0
2019-Oct-12 18:00N 41°21' W 071°58'0 0.0
2019-Oct-12 17:30N 41°21' W 071°58'0 0.0
2019-Oct-12 17:00N 41°21' W 071°58'0 0.0
2019-Oct-12 16:30N 41°21' W 071°58'0 0.0
2019-Oct-12 16:00N 41°21' W 071°58'0 0.0
2019-Oct-12 15:30N 41°21' W 071°58'0 0.0
2019-Oct-12 15:00N 41°21' W 071°58'0 0.0
2019-Oct-12 14:30N 41°21' W 071°58'0 0.0
2019-Oct-12 14:00N 41°21' W 071°58'0 0.0
2019-Oct-12 13:30N 41°21' W 071°58'0 0.0
2019-Oct-12 13:00N 41°21' W 071°58'0 0.0
2019-Oct-12 12:30N 41°21' W 071°58'0 0.0
2019-Oct-12 12:00N 41°21' W 071°58'0 0.0
2019-Oct-12 11:30N 41°21' W 071°58'0 0.0
2019-Oct-12 11:00N 41°21' W 071°58'0 0.0
2019-Oct-12 10:30N 41°21' W 071°58'0 0.0
2019-Oct-12 10:00N 41°21' W 071°58'0 0.0
2019-Oct-12 09:30N 41°21' W 071°58'0 0.0
2019-Oct-12 09:00N 41°21' W 071°58'0 0.0
2019-Oct-12 08:30N 41°21' W 071°58'0 0.0
2019-Oct-12 08:00N 41°21' W 071°58'0 0.0
2019-Oct-12 07:30N 41°21' W 071°58'0 0.0
2019-Oct-12 07:00N 41°21' W 071°58'0 0.0
2019-Oct-12 06:30N 41°21' W 071°58'0 0.0
2019-Oct-12 06:00N 41°21' W 071°58'0 0.0
2019-Oct-12 05:30N 41°21' W 071°58'0 0.0
2019-Oct-12 05:00N 41°21' W 071°58'0 0.0
2019-Oct-12 04:30N 41°21' W 071°58'0 0.0
2019-Oct-12 04:00N 41°21' W 071°58'0 0.0
2019-Oct-12 03:30N 41°21' W 071°58'0 0.0
2019-Oct-12 03:00N 41°21' W 071°58'0 0.0
2019-Oct-12 02:30N 41°21' W 071°58'0 0.0
2019-Oct-12 02:00N 41°21' W 071°58'0 0.0
2019-Oct-12 01:30N 41°21' W 071°58'0 0.0
2019-Oct-12 01:00N 41°21' W 071°58'0 0.0
2019-Oct-12 00:30N 41°21' W 071°58'0 0.0
2019-Oct-12 00:00N 41°21' W 071°58'0 0.0
2019-Oct-11 23:30N 41°21' W 071°58'0 0.0
2019-Oct-11 23:00N 41°21' W 071°58'0 0.0
2019-Oct-11 22:30N 41°21' W 071°58'0 0.0
2019-Oct-11 22:00N 41°21' W 071°58'0 0.0
2019-Oct-11 21:30N 41°21' W 071°58'0 0.0
2019-Oct-11 21:00N 41°21' W 071°58'0 0.0
2019-Oct-11 20:30N 41°21' W 071°58'0 0.0
2019-Oct-11 20:00N 41°21' W 071°58'0 0.0
2019-Oct-11 19:30N 41°21' W 071°58'0 0.0
2019-Oct-11 19:00N 41°21' W 071°58'0 0.0
2019-Oct-11 18:30N 41°21' W 071°58'0 0.0
2019-Oct-11 18:00N 41°21' W 071°58'0 0.0
2019-Oct-11 17:30N 41°21' W 071°58'0 0.0
2019-Oct-11 17:00N 41°21' W 071°58'0 0.0
2019-Oct-11 16:30N 41°21' W 071°58'0 0.0
2019-Oct-11 16:00N 41°21' W 071°58'0 0.0
2019-Oct-11 15:30N 41°21' W 071°58'0 0.0
2019-Oct-11 15:00N 41°21' W 071°58'0 0.0
2019-Oct-11 14:30N 41°21' W 071°58'0 0.0
2019-Oct-11 13:57N 41°21' W 071°58'0 0.0
2019-Oct-11 13:30N 41°21' W 071°58'0 0.0
2019-Oct-11 13:00N 41°21' W 071°58'0 0.0
2019-Oct-11 12:30N 41°21' W 071°58'0 0.0
2019-Oct-11 12:00N 41°21' W 071°58'0 0.0
2019-Oct-11 11:30N 41°21' W 071°58'0 0.0
2019-Oct-11 11:00N 41°21' W 071°58'0 0.0
2019-Oct-11 10:30N 41°21' W 071°58'0 0.0
2019-Oct-11 10:00N 41°21' W 071°58'0 0.0
2019-Oct-11 09:30N 41°21' W 071°58'0 0.0
2019-Oct-11 09:00N 41°21' W 071°58'0 0.0
2019-Oct-11 08:30N 41°21' W 071°58'0 0.0
2019-Oct-11 08:00N 41°21' W 071°58'0 0.0
2019-Oct-11 07:30N 41°21' W 071°58'0 0.0
2019-Oct-11 07:00N 41°21' W 071°58'0 0.0
2019-Oct-11 06:30N 41°21' W 071°58'0 0.0
2019-Oct-11 06:00N 41°21' W 071°58'0 0.0
2019-Oct-11 05:30N 41°21' W 071°58'0 0.0
2019-Oct-11 05:00N 41°21' W 071°58'0 0.0
2019-Oct-11 04:30N 41°21' W 071°58'0 0.0
2019-Oct-11 04:00N 41°21' W 071°58'0 0.0
2019-Oct-11 03:30N 41°21' W 071°58'0 0.0
2019-Oct-11 03:00N 41°21' W 071°58'0 0.0
2019-Oct-11 02:30N 41°21' W 071°58'0 0.0
2019-Oct-11 02:00N 41°21' W 071°58'0 0.0
2019-Oct-11 01:30N 41°21' W 071°58'0 0.0
2019-Oct-11 01:00N 41°21' W 071°58'0 0.0
2019-Oct-11 00:30N 41°21' W 071°58'0 0.0
2019-Oct-11 00:00N 41°21' W 071°58'0 0.0
2019-Oct-10 23:30N 41°21' W 071°58'0 0.0
2019-Oct-10 23:00N 41°21' W 071°58'0 0.0
2019-Oct-10 22:30N 41°21' W 071°58'0 0.0
2019-Oct-10 22:00N 41°21' W 071°58'0 0.0
2019-Oct-10 21:30N 41°21' W 071°58'0 0.0
2019-Oct-10 21:00N 41°21' W 071°58'0 0.0
2019-Oct-10 20:30N 41°21' W 071°58'0 0.0
2019-Oct-10 20:00N 41°21' W 071°58'0 0.0
2019-Oct-10 19:30N 41°21' W 071°58'0 0.0
2019-Oct-10 19:00N 41°21' W 071°58'0 0.0
2019-Oct-10 18:30N 41°21' W 071°58'0 0.0
2019-Oct-10 18:00N 41°21' W 071°58'0 0.0
2019-Oct-10 17:30N 41°21' W 071°58'0 0.0
2019-Oct-10 17:00N 41°21' W 071°58'0 0.0
2019-Oct-10 16:30N 41°21' W 071°58'0 0.0
2019-Oct-10 16:00N 41°21' W 071°58'0 0.0
2019-Oct-10 15:30N 41°21' W 071°58'0 0.0
2019-Oct-10 15:00N 41°21' W 071°58'0 0.0
2019-Oct-10 14:30N 41°21' W 071°58'0 0.0
2019-Oct-10 14:00N 41°21' W 071°58'0 0.0
2019-Oct-10 13:30N 41°21' W 071°58'0 0.0
2019-Oct-10 13:00N 41°21' W 071°58'0 0.0
2019-Oct-10 12:30N 41°21' W 071°58'0 0.0
2019-Oct-10 12:00N 41°21' W 071°58'0 0.0
2019-Oct-10 11:30N 41°21' W 071°58'0 0.0
2019-Oct-10 11:00N 41°21' W 071°58'0 0.0
2019-Oct-10 10:30N 41°21' W 071°58'0 0.0
2019-Oct-10 10:00N 41°21' W 071°58'0 0.0
2019-Oct-10 09:30N 41°21' W 071°58'0 0.0
2019-Oct-10 09:00N 41°21' W 071°58'0 0.0
2019-Oct-10 08:30N 41°21' W 071°58'0 0.0
2019-Oct-10 08:00N 41°21' W 071°58'0 0.0
2019-Oct-10 07:30N 41°21' W 071°58'0 0.0
2019-Oct-10 07:00N 41°21' W 071°58'0 0.0
2019-Oct-10 06:30N 41°21' W 071°58'0 0.0
2019-Oct-10 06:00N 41°21' W 071°58'0 0.0
2019-Oct-10 05:30N 41°21' W 071°58'0 0.0
2019-Oct-10 05:00N 41°21' W 071°58'0 0.0
2019-Oct-10 04:30N 41°21' W 071°58'0 0.0
2019-Oct-10 04:00N 41°21' W 071°58'0 0.0
2019-Oct-10 03:30N 41°21' W 071°58'0 0.0
2019-Oct-10 03:00N 41°21' W 071°58'0 0.0
2019-Oct-10 02:30N 41°21' W 071°58'0 0.0
2019-Oct-10 02:00N 41°21' W 071°58'0 0.0
2019-Oct-10 01:30N 41°21' W 071°58'0 0.0
2019-Oct-09 21:18N 41°21' W 071°58'0 0.0
2019-Oct-09 19:51N 41°21' W 071°58'0 0.0
2019-Oct-09 19:24N 41°21' W 071°58'0 0.0
2019-Oct-09 19:00N 41°21' W 071°58'0 0.0
2019-Oct-09 18:30N 41°21' W 071°58'0 0.0
2019-Oct-09 18:00N 41°21' W 071°58'0 0.0
2019-Oct-09 17:30N 41°21' W 071°58'0 0.0
2019-Oct-09 17:00N 41°21' W 071°58'0 0.0
2019-Oct-09 16:30N 41°21' W 071°58'0 0.0
2019-Oct-09 16:00N 41°21' W 071°58'0 0.0
2019-Oct-09 15:30N 41°21' W 071°58'0 0.0
2019-Oct-09 15:00N 41°21' W 071°58'0 0.0
2019-Oct-09 14:30N 41°21' W 071°58'0 0.0
2019-Oct-09 14:00N 41°21' W 071°58'0 0.0
2019-Oct-09 13:30N 41°21' W 071°58'0 0.0
2019-Oct-09 13:00N 41°21' W 071°58'0 0.0
2019-Oct-09 12:30N 41°21' W 071°58'0 0.0
2019-Oct-09 12:00N 41°21' W 071°58'0 0.0
2019-Oct-09 11:30N 41°21' W 071°58'0 0.0
2019-Oct-09 11:00N 41°21' W 071°58'0 0.0
2019-Oct-09 10:30N 41°21' W 071°58'0 0.0
2019-Oct-09 10:00N 41°21' W 071°58'0 0.0
2019-Oct-09 09:30N 41°21' W 071°58'0 0.0
2019-Oct-09 09:00N 41°21' W 071°58'0 0.0
2019-Oct-09 08:30N 41°21' W 071°58'0 0.0
2019-Oct-09 08:00N 41°21' W 071°58'0 0.0
2019-Oct-09 07:30N 41°21' W 071°58'0 0.0
2019-Oct-09 07:00N 41°21' W 071°58'0 0.0
2019-Oct-09 06:30N 41°21' W 071°58'0 0.0
2019-Oct-09 06:00N 41°21' W 071°58'0 0.0
2019-Oct-09 05:30N 41°21' W 071°58'0 0.0
2019-Oct-09 05:00N 41°21' W 071°58'0 0.0
2019-Oct-09 04:30N 41°21' W 071°58'0 0.0
2019-Oct-09 04:00N 41°21' W 071°58'0 0.0
2019-Oct-09 03:30N 41°21' W 071°58'0 0.0
2019-Oct-09 03:00N 41°21' W 071°58'0 0.0
2019-Oct-09 02:30N 41°21' W 071°58'0 0.0
2019-Oct-09 02:00N 41°21' W 071°58'0 0.0
2019-Oct-09 01:30N 41°21' W 071°58'0 0.0
2019-Oct-09 01:00N 41°21' W 071°58'0 0.0
2019-Oct-09 00:30N 41°21' W 071°58'0 0.0
2019-Oct-09 00:00N 41°21' W 071°58'0 0.0
2019-Oct-08 23:30N 41°21' W 071°58'0 0.0
2019-Oct-08 23:00N 41°21' W 071°58'0 0.0
2019-Oct-08 22:30N 41°21' W 071°58'0 0.0
2019-Oct-08 22:00N 41°21' W 071°58'0 0.0
2019-Oct-08 21:30N 41°21' W 071°58'0 0.0
2019-Oct-08 21:00N 41°21' W 071°58'0 0.0
2019-Oct-08 20:30N 41°21' W 071°58'0 0.0
2019-Oct-08 20:00N 41°21' W 071°58'2 3.3
2019-Oct-08 19:30N 41°20' W 071°59'2 4.0
2019-Oct-08 19:00N 41°18' W 072°01'1 2.2
2019-Oct-08 18:30N 41°17' W 072°02'1 2.5
2019-Oct-08 18:00N 41°17' W 072°03'1 2.0
2019-Oct-08 17:30N 41°16' W 072°04'1 1.9
2019-Oct-08 17:00N 41°15' W 072°04'3 5.9
2019-Oct-08 16:30N 41°16' W 072°08'3 6.1
2019-Oct-08 16:00N 41°16' W 072°12'2 3.6
2019-Oct-08 15:30N 41°16' W 072°10'2 3.9
2019-Oct-08 15:00N 41°17' W 072°07'1 2.5
2019-Oct-08 14:30N 41°17' W 072°06'3 5.1
2019-Oct-08 14:00N 41°20' W 072°05'0 0.4
2019-Oct-08 13:29N 41°20' W 072°06'0 0.0
2019-Oct-08 12:59N 41°20' W 072°06'0 0.0
2019-Oct-08 12:29N 41°20' W 072°06'0 0.0
2019-Oct-08 11:59N 41°20' W 072°06'0 0.0
2019-Oct-08 11:29N 41°20' W 072°06'0 0.0
2019-Oct-08 10:59N 41°20' W 072°06'0 0.0
2019-Oct-08 10:29N 41°20' W 072°06'0 0.0
2019-Oct-08 09:59N 41°20' W 072°06'0 0.0
2019-Oct-08 09:29N 41°20' W 072°06'0 0.0
2019-Oct-08 08:59N 41°20' W 072°06'0 0.0
2019-Oct-08 08:29N 41°20' W 072°06'0 0.0
2019-Oct-08 07:59N 41°20' W 072°06'0 0.0
2019-Oct-08 07:29N 41°20' W 072°06'0 0.0
2019-Oct-08 06:59N 41°20' W 072°06'0 0.0
2019-Oct-08 06:29N 41°20' W 072°06'0 0.0
2019-Oct-08 05:59N 41°20' W 072°06'0 0.0
2019-Oct-08 05:29N 41°20' W 072°06'0 0.0
2019-Oct-08 04:59N 41°20' W 072°06'0 0.0
2019-Oct-08 04:29N 41°20' W 072°06'0 0.0
2019-Oct-08 03:59N 41°20' W 072°06'0 0.0
2019-Oct-08 03:29N 41°20' W 072°06'0 0.0
2019-Oct-08 02:59N 41°20' W 072°06'0 0.0
2019-Oct-08 02:29N 41°20' W 072°06'0 0.0
2019-Oct-08 01:59N 41°20' W 072°06'0 0.0
2019-Oct-08 01:29N 41°20' W 072°06'0 0.0
2019-Oct-08 00:59N 41°20' W 072°06'0 0.0
2019-Oct-08 00:29N 41°20' W 072°06'0 0.0
2019-Oct-07 23:59N 41°20' W 072°06'0 0.0
2019-Oct-07 23:29N 41°20' W 072°06'0 0.0
2019-Oct-07 22:59N 41°20' W 072°06'0 0.0
2019-Oct-07 22:29N 41°20' W 072°06'0 0.0
2019-Oct-07 21:59N 41°20' W 072°06'0 0.0
2019-Oct-07 21:29N 41°20' W 072°06'0 0.0
2019-Oct-07 20:59N 41°20' W 072°06'0 0.0
2019-Oct-07 20:29N 41°20' W 072°06'0 0.0
2019-Oct-07 19:59N 41°20' W 072°06'0 0.0
2019-Oct-07 19:29N 41°20' W 072°06'0 0.0
2019-Oct-07 18:59N 41°20' W 072°06'0 0.0
2019-Oct-07 18:29N 41°20' W 072°06'0 0.0
2019-Oct-07 17:59N 41°20' W 072°06'0 0.0
2019-Oct-07 17:29N 41°20' W 072°06'0 0.0
2019-Oct-07 16:59N 41°20' W 072°06'0 0.0
2019-Oct-07 16:29N 41°20' W 072°06'0 0.0
2019-Oct-07 15:59N 41°20' W 072°06'0 0.0
2019-Oct-07 15:29N 41°20' W 072°06'0 0.0
2019-Oct-07 14:59N 41°20' W 072°06'0 0.0
2019-Oct-07 14:29N 41°20' W 072°06'0 0.0
2019-Oct-07 13:59N 41°20' W 072°06'0 0.0
2019-Oct-07 13:29N 41°20' W 072°06'0 0.0
2019-Oct-07 12:59N 41°20' W 072°06'0 0.0
2019-Oct-07 12:29N 41°20' W 072°06'0 0.0
2019-Oct-07 11:59N 41°20' W 072°06'0 0.0
2019-Oct-07 11:29N 41°20' W 072°06'0 0.0
2019-Oct-07 10:59N 41°20' W 072°06'0 0.0
2019-Oct-07 10:29N 41°20' W 072°06'0 0.0
2019-Oct-07 09:59N 41°20' W 072°06'0 0.0
2019-Oct-07 09:29N 41°20' W 072°06'0 0.0
2019-Oct-07 08:59N 41°20' W 072°06'0 0.0
2019-Oct-07 08:29N 41°20' W 072°06'0 0.0
2019-Oct-07 07:59N 41°20' W 072°06'0 0.0
2019-Oct-07 07:29N 41°20' W 072°06'0 0.0
2019-Oct-07 06:59N 41°20' W 072°06'0 0.0
2019-Oct-07 06:29N 41°20' W 072°06'0 0.0
2019-Oct-07 05:59N 41°20' W 072°06'0 0.0
2019-Oct-07 05:29N 41°20' W 072°06'0 0.0
2019-Oct-07 04:59N 41°20' W 072°06'0 0.0
2019-Oct-07 04:29N 41°20' W 072°06'0 0.0
2019-Oct-07 03:59N 41°20' W 072°06'0 0.0
2019-Oct-07 03:29N 41°20' W 072°06'0 0.0
2019-Oct-07 02:59N 41°20' W 072°06'0 0.0
2019-Oct-07 01:59N 41°20' W 072°06'0 0.0
2019-Oct-07 01:29N 41°20' W 072°06'0 0.0
2019-Oct-07 00:59N 41°20' W 072°06'0 0.0
2019-Oct-07 00:29N 41°20' W 072°06'0 0.0
2019-Oct-06 23:59N 41°20' W 072°06'0 0.0
2019-Oct-06 23:29N 41°20' W 072°06'0 0.0
2019-Oct-06 22:59N 41°20' W 072°06'0 0.0
2019-Oct-06 22:29N 41°20' W 072°06'0 0.0
2019-Oct-06 21:59N 41°20' W 072°06'0 0.0
2019-Oct-06 21:29N 41°20' W 072°06'0 0.0
2019-Oct-06 20:59N 41°20' W 072°06'0 0.0
2019-Oct-06 20:29N 41°20' W 072°06'0 0.0
2019-Oct-06 19:59N 41°20' W 072°06'0 0.0
2019-Oct-06 19:29N 41°20' W 072°06'0 0.0
2019-Oct-06 18:59N 41°20' W 072°06'0 0.0
2019-Oct-06 18:29N 41°20' W 072°06'0 0.0
2019-Oct-06 17:59N 41°20' W 072°06'0 0.0
2019-Oct-06 17:29N 41°20' W 072°06'0 0.0
2019-Oct-06 16:59N 41°20' W 072°06'0 0.0
2019-Oct-06 16:29N 41°20' W 072°06'0 0.0
2019-Oct-06 15:59N 41°20' W 072°06'0 0.0
2019-Oct-06 15:29N 41°20' W 072°06'0 0.0
2019-Oct-06 14:59N 41°20' W 072°06'0 0.0
2019-Oct-06 14:29N 41°20' W 072°06'0 0.0
2019-Oct-06 13:59N 41°20' W 072°06'0 0.0
2019-Oct-06 13:29N 41°20' W 072°06'0 0.0
2019-Oct-06 12:59N 41°20' W 072°06'0 0.0
2019-Oct-06 12:29N 41°20' W 072°06'0 0.0
2019-Oct-06 11:59N 41°20' W 072°06'0 0.0
2019-Oct-06 11:29N 41°20' W 072°06'0 0.0
2019-Oct-06 10:59N 41°20' W 072°06'0 0.0
2019-Oct-06 10:29N 41°20' W 072°06'0 0.0
2019-Oct-06 09:59N 41°20' W 072°06'0 0.0
2019-Oct-06 09:29N 41°20' W 072°06'0 0.0
2019-Oct-06 08:59N 41°20' W 072°06'0 0.0
2019-Oct-06 08:29N 41°20' W 072°06'0 0.0
2019-Oct-06 07:59N 41°20' W 072°06'0 0.0
2019-Oct-06 07:29N 41°20' W 072°06'0 0.0
2019-Oct-06 06:59N 41°20' W 072°06'0 0.0
2019-Oct-06 06:29N 41°20' W 072°06'0 0.0
2019-Oct-06 05:59N 41°20' W 072°06'0 0.0
2019-Oct-06 05:29N 41°20' W 072°06'0 0.0
2019-Oct-06 04:59N 41°20' W 072°06'0 0.0
2019-Oct-06 04:29N 41°20' W 072°06'0 0.0
2019-Oct-06 03:59N 41°20' W 072°06'0 0.0
2019-Oct-06 03:29N 41°20' W 072°06'0 0.0
2019-Oct-06 02:59N 41°20' W 072°06'0 0.0
2019-Oct-06 02:29N 41°20' W 072°06'0 0.0
2019-Oct-06 01:59N 41°20' W 072°06'0 0.0
2019-Oct-06 01:29N 41°20' W 072°06'0 0.0
2019-Oct-06 00:59N 41°20' W 072°06'0 0.0
2019-Oct-06 00:29N 41°20' W 072°06'0 0.0
2019-Oct-05 23:59N 41°20' W 072°06'0 0.0
2019-Oct-05 23:29N 41°20' W 072°06'0 0.0
2019-Oct-05 22:58N 41°20' W 072°06'0 0.0
2019-Oct-05 22:29N 41°20' W 072°06'0 0.0
2019-Oct-05 21:58N 41°20' W 072°06'0 0.0
2019-Oct-05 21:28N 41°20' W 072°06'0 0.0
2019-Oct-05 20:58N 41°20' W 072°06'0 0.0
2019-Oct-05 20:28N 41°20' W 072°06'0 0.0
2019-Oct-05 19:58N 41°20' W 072°06'0 0.0
2019-Oct-05 19:28N 41°20' W 072°06'0 0.0
2019-Oct-05 18:58N 41°20' W 072°06'0 0.0
2019-Oct-05 18:28N 41°20' W 072°06'0 0.0
2019-Oct-05 17:58N 41°20' W 072°06'0 0.0
2019-Oct-05 17:28N 41°20' W 072°06'0 0.0
2019-Oct-05 16:58N 41°20' W 072°06'0 0.0
2019-Oct-05 16:28N 41°20' W 072°06'0 0.0
2019-Oct-05 15:58N 41°20' W 072°06'0 0.0
2019-Oct-05 15:28N 41°20' W 072°06'0 0.0
2019-Oct-05 14:58N 41°20' W 072°06'0 0.0
2019-Oct-05 14:28N 41°20' W 072°06'0 0.0
2019-Oct-05 13:58N 41°20' W 072°06'0 0.0
2019-Oct-05 13:28N 41°20' W 072°06'0 0.0
2019-Oct-05 12:58N 41°20' W 072°06'0 0.0
2019-Oct-05 12:28N 41°20' W 072°06'0 0.0
2019-Oct-05 11:58N 41°20' W 072°06'0 0.0
2019-Oct-05 11:28N 41°20' W 072°06'0 0.0
2019-Oct-05 10:58N 41°20' W 072°06'0 0.0
2019-Oct-05 10:28N 41°20' W 072°06'0 0.0
2019-Oct-05 09:58N 41°20' W 072°06'0 0.0
2019-Oct-05 09:28N 41°20' W 072°06'0 0.0
2019-Oct-05 08:58N 41°20' W 072°06'0 0.0
2019-Oct-05 08:28N 41°20' W 072°06'0 0.0
2019-Oct-05 07:58N 41°20' W 072°06'0 0.0
2019-Oct-05 07:28N 41°20' W 072°06'0 0.0
2019-Oct-05 06:58N 41°20' W 072°06'0 0.0
2019-Oct-05 06:28N 41°20' W 072°06'0 0.0
2019-Oct-05 05:58N 41°20' W 072°06'0 0.0
2019-Oct-05 05:28N 41°20' W 072°06'0 0.0
2019-Oct-05 04:58N 41°20' W 072°06'0 0.0
2019-Oct-05 04:28N 41°20' W 072°06'0 0.0
2019-Oct-05 03:58N 41°20' W 072°06'0 0.0
2019-Oct-05 03:28N 41°20' W 072°06'0 0.0
2019-Oct-05 02:58N 41°20' W 072°06'0 0.0
2019-Oct-05 02:28N 41°20' W 072°06'0 0.0
2019-Oct-05 01:58N 41°20' W 072°06'0 0.0
2019-Oct-05 01:28N 41°20' W 072°06'0 0.0
2019-Oct-05 00:58N 41°20' W 072°06'0 0.0
2019-Oct-05 00:28N 41°20' W 072°06'0 0.0
2019-Oct-04 23:58N 41°20' W 072°06'0 0.0
2019-Oct-04 23:28N 41°20' W 072°06'0 0.0
2019-Oct-04 22:58N 41°20' W 072°06'0 0.0
2019-Oct-04 22:28N 41°20' W 072°06'0 0.0
2019-Oct-04 21:58N 41°20' W 072°06'0 0.0
2019-Oct-04 21:28N 41°20' W 072°06'0 0.0
2019-Oct-04 20:58N 41°20' W 072°06'0 0.0
2019-Oct-04 20:28N 41°20' W 072°06'0 0.0
2019-Oct-04 19:58N 41°20' W 072°06'0 0.0
2019-Oct-04 19:28N 41°20' W 072°06'0 0.0
2019-Oct-04 18:58N 41°20' W 072°06'0 0.0
2019-Oct-04 18:28N 41°20' W 072°06'0 0.0
2019-Oct-04 17:58N 41°20' W 072°06'0 0.0
2019-Oct-04 17:28N 41°20' W 072°06'0 0.0
2019-Oct-04 16:58N 41°20' W 072°06'0 0.0
2019-Oct-04 16:28N 41°20' W 072°06'0 0.0
2019-Oct-04 16:00N 41°20' W 072°06'1 1.7
2019-Oct-04 15:30N 41°19' W 072°05'3 5.7
2019-Oct-04 15:00N 41°17' W 072°07'4 7.4
2019-Oct-04 14:30N 41°16' W 072°12'4 7.8
2019-Oct-04 14:00N 41°15' W 072°17'4 7.2
2019-Oct-04 13:30N 41°14' W 072°22'  

Dump ship's entire track history